createdAt,value
2017-08-08T00:01:18.508Z,20.30
2017-08-08T00:03:48.294Z,20.30
2017-08-08T00:06:19.407Z,20.10
2017-08-08T00:08:47.943Z,20.10
2017-08-08T00:11:20.316Z,20.10
2017-08-08T00:13:51.568Z,20.00
2017-08-08T00:16:23.168Z,20.00
2017-08-08T00:18:53.636Z,20.00
2017-08-08T00:21:23.870Z,19.90
2017-08-08T00:23:53.902Z,20.00
2017-08-08T00:26:22.312Z,20.00
2017-08-08T00:28:50.776Z,19.90
2017-08-08T00:31:19.236Z,19.90
2017-08-08T00:33:48.339Z,19.90
2017-08-08T00:36:16.776Z,19.80
2017-08-08T00:38:45.229Z,19.70
2017-08-08T00:41:14.413Z,19.70
2017-08-08T00:43:42.845Z,19.70
2017-08-08T00:46:11.304Z,19.70
2017-08-08T00:48:39.718Z,19.70
2017-08-08T00:51:07.809Z,19.60
2017-08-08T00:53:36.259Z,19.60
2017-08-08T00:56:05.365Z,19.50
2017-08-08T00:58:33.785Z,19.50
2017-08-08T01:01:02.998Z,19.50
2017-08-08T01:03:31.413Z,19.50
2017-08-08T01:05:59.857Z,19.50
2017-08-08T01:08:29.124Z,19.50
2017-08-08T01:10:57.544Z,19.40
2017-08-08T01:13:25.984Z,19.40
2017-08-08T01:15:54.405Z,19.50
2017-08-08T01:18:22.855Z,19.40
2017-08-08T01:20:51.261Z,19.40
2017-08-08T01:23:19.737Z,19.40
2017-08-08T01:25:48.156Z,19.40
2017-08-08T01:28:16.585Z,19.50
2017-08-08T01:30:45.702Z,19.40
2017-08-08T01:33:14.117Z,19.40
2017-08-08T01:35:42.534Z,19.40
2017-08-08T01:38:11.761Z,19.30
2017-08-08T01:40:40.185Z,19.30
2017-08-08T01:43:08.596Z,19.30
2017-08-08T01:45:37.043Z,19.30
2017-08-08T01:48:05.452Z,19.30
2017-08-08T01:50:33.877Z,19.30
2017-08-08T01:53:02.314Z,19.30
2017-08-08T01:55:30.736Z,19.20
2017-08-08T01:57:59.164Z,19.20
2017-08-08T02:00:27.606Z,19.20
2017-08-08T02:02:55.663Z,19.20
2017-08-08T02:05:23.732Z,19.20
2017-08-08T02:07:52.169Z,19.20
2017-08-08T02:10:20.584Z,19.20
2017-08-08T02:12:48.648Z,19.20
2017-08-08T02:15:16.752Z,19.20
2017-08-08T02:17:45.172Z,19.20
2017-08-08T02:20:13.583Z,19.20
2017-08-08T02:22:42.014Z,19.10
2017-08-08T02:25:11.195Z,19.10
2017-08-08T02:27:39.588Z,19.10
2017-08-08T02:30:08.467Z,19.10
2017-08-08T02:32:37.632Z,19.10
2017-08-08T02:35:05.701Z,19.10
2017-08-08T02:37:34.820Z,19.10
2017-08-08T02:40:03.262Z,19.10
2017-08-08T02:42:32.367Z,19.10
2017-08-08T02:45:00.792Z,19.10
2017-08-08T02:47:29.992Z,19.00
2017-08-08T02:49:58.442Z,19.00
2017-08-08T02:52:26.942Z,19.00
2017-08-08T02:54:56.118Z,19.00
2017-08-08T02:57:24.566Z,19.00
2017-08-08T02:59:53.021Z,19.00
2017-08-08T03:02:21.469Z,18.90
2017-08-08T03:04:49.985Z,18.90
2017-08-08T03:07:18.400Z,18.80
2017-08-08T03:09:46.815Z,18.70
2017-08-08T03:12:16.009Z,18.60
2017-08-08T03:14:45.240Z,18.50
2017-08-08T03:17:13.661Z,18.50
2017-08-08T03:19:42.074Z,18.50
2017-08-08T03:22:11.309Z,18.50
2017-08-08T03:24:39.729Z,18.50
2017-08-08T03:27:08.148Z,18.40
2017-08-08T03:29:36.588Z,18.40
2017-08-08T03:32:05.262Z,18.40
2017-08-08T03:34:33.674Z,18.50
2017-08-08T03:37:02.878Z,18.60
2017-08-08T03:39:31.309Z,18.60
2017-08-08T03:41:59.737Z,18.60
2017-08-08T03:44:28.188Z,18.60
2017-08-08T03:46:56.592Z,18.60
2017-08-08T03:49:25.004Z,18.60
2017-08-08T03:51:53.438Z,18.60
2017-08-08T03:54:22.662Z,18.60
2017-08-08T03:56:51.061Z,18.60
2017-08-08T03:59:19.537Z,18.60
2017-08-08T04:01:47.960Z,18.50
2017-08-08T04:04:16.376Z,18.50
2017-08-08T04:06:44.820Z,18.50
2017-08-08T04:09:13.235Z,18.50
2017-08-08T04:11:41.653Z,18.50
2017-08-08T04:14:10.113Z,18.50
2017-08-08T04:16:38.522Z,18.50
2017-08-08T04:19:06.936Z,18.40
2017-08-08T04:21:35.383Z,18.40
2017-08-08T04:24:03.776Z,18.40
2017-08-08T04:26:32.957Z,18.40
2017-08-08T04:29:01.389Z,18.40
2017-08-08T04:31:29.825Z,18.40
2017-08-08T04:33:58.269Z,18.40
2017-08-08T04:36:26.717Z,18.40
2017-08-08T04:38:55.128Z,18.40
2017-08-08T04:41:23.636Z,18.40
2017-08-08T04:43:52.091Z,18.40
2017-08-08T04:48:56.780Z,18.50
2017-08-08T04:51:25.624Z,18.50
2017-08-08T04:53:54.047Z,18.50
2017-08-08T04:56:22.508Z,18.50
2017-08-08T04:58:50.951Z,18.50
2017-08-08T05:01:19.359Z,18.50
2017-08-08T05:03:47.804Z,18.50
2017-08-08T05:06:16.234Z,18.40
2017-08-08T05:08:45.451Z,18.50
2017-08-08T05:11:14.647Z,18.50
2017-08-08T05:13:43.082Z,18.50
2017-08-08T05:16:11.497Z,18.60
2017-08-08T05:18:39.977Z,18.70
2017-08-08T05:21:08.465Z,18.80
2017-08-08T05:23:37.640Z,18.90
2017-08-08T05:26:06.849Z,19.00
2017-08-08T05:28:36.036Z,19.00
2017-08-08T05:31:05.234Z,19.00
2017-08-08T05:33:34.465Z,19.00
2017-08-08T05:36:02.897Z,19.00
2017-08-08T05:38:31.309Z,19.00
2017-08-08T05:40:59.748Z,19.10
2017-08-08T05:43:28.164Z,19.20
2017-08-08T05:45:56.597Z,19.20
2017-08-08T05:48:25.058Z,19.30
2017-08-08T05:50:53.478Z,19.30
2017-08-08T05:53:22.658Z,19.40
2017-08-08T05:55:51.101Z,19.40
2017-08-08T05:58:19.510Z,19.40
2017-08-08T06:00:47.933Z,19.50
2017-08-08T06:03:16.384Z,19.50
2017-08-08T06:05:44.816Z,19.50
2017-08-08T06:08:13.234Z,19.60
2017-08-08T06:10:41.666Z,19.60
2017-08-08T06:13:10.101Z,19.60
2017-08-08T06:15:38.513Z,19.70
2017-08-08T06:18:06.949Z,19.70
2017-08-08T06:20:35.361Z,19.70
2017-08-08T06:23:03.794Z,19.80
2017-08-08T06:25:32.232Z,19.80
2017-08-08T06:28:00.644Z,19.90
2017-08-08T06:30:29.058Z,20.00
2017-08-08T06:32:58.269Z,20.20
2017-08-08T06:35:27.448Z,20.20
2017-08-08T06:37:56.625Z,20.10
2017-08-08T06:40:25.063Z,20.10
2017-08-08T06:42:53.468Z,20.10
2017-08-08T06:45:21.882Z,20.00
2017-08-08T06:47:51.084Z,20.10
2017-08-08T06:50:20.369Z,20.10
2017-08-08T06:52:48.789Z,20.10
2017-08-08T06:55:17.436Z,20.10
2017-08-08T06:57:46.621Z,20.00
2017-08-08T07:00:15.036Z,19.90
2017-08-08T07:02:44.260Z,19.90
2017-08-08T07:05:12.783Z,19.80
2017-08-08T07:07:41.210Z,19.90
2017-08-08T07:10:09.649Z,19.90
2017-08-08T07:12:38.093Z,19.90
2017-08-08T07:15:06.627Z,19.90
2017-08-08T07:17:35.319Z,20.00
2017-08-08T07:20:03.979Z,20.00
2017-08-08T07:22:32.398Z,20.00
2017-08-08T07:25:00.884Z,20.00
2017-08-08T07:27:29.510Z,20.10
2017-08-08T07:29:58.047Z,20.00
2017-08-08T07:32:26.487Z,20.10
2017-08-08T07:34:55.677Z,20.10
2017-08-08T07:37:25.029Z,20.10
2017-08-08T07:39:53.521Z,20.10
2017-08-08T07:42:21.956Z,20.10
2017-08-08T07:44:51.195Z,20.20
2017-08-08T07:47:20.326Z,20.20
2017-08-08T07:49:51.812Z,20.20
2017-08-08T07:52:20.746Z,20.10
2017-08-08T07:54:49.575Z,20.10
2017-08-08T07:57:18.342Z,20.10
2017-08-08T07:59:46.886Z,20.10
2017-08-08T08:02:15.300Z,20.10
2017-08-08T08:04:43.737Z,20.00
2017-08-08T08:07:12.188Z,20.00
2017-08-08T08:09:40.754Z,20.00
2017-08-08T08:12:09.973Z,20.00
2017-08-08T08:14:38.598Z,20.00
2017-08-08T08:17:07.251Z,20.00
2017-08-08T08:19:35.661Z,20.00
2017-08-08T08:22:04.216Z,19.90
2017-08-08T08:24:32.711Z,19.90
2017-08-08T08:27:01.222Z,19.90
2017-08-08T08:29:29.716Z,20.00
2017-08-08T08:31:58.952Z,19.90
2017-08-08T08:34:27.424Z,19.90
2017-08-08T08:36:58.250Z,20.00
2017-08-08T08:39:26.793Z,19.90
2017-08-08T08:41:55.213Z,19.80
2017-08-08T08:44:23.672Z,19.80
2017-08-08T08:46:52.598Z,19.80
2017-08-08T08:49:21.036Z,19.80
2017-08-08T08:51:50.355Z,19.80
2017-08-08T08:54:20.328Z,19.90
2017-08-08T08:56:48.752Z,19.90
2017-08-08T08:59:17.219Z,20.00
2017-08-08T09:01:45.637Z,20.00
2017-08-08T09:04:14.108Z,20.00
2017-08-08T09:06:42.620Z,20.00
2017-08-08T09:09:11.032Z,20.10
2017-08-08T09:11:39.452Z,20.00
2017-08-08T09:14:07.893Z,19.90
2017-08-08T09:16:36.298Z,19.90
2017-08-08T09:19:04.721Z,19.90
2017-08-08T09:21:33.169Z,19.90
2017-08-08T09:24:01.607Z,20.00
2017-08-08T09:26:30.784Z,20.00
2017-08-08T09:28:59.993Z,20.10
2017-08-08T09:31:29.139Z,20.00
2017-08-08T09:33:57.561Z,20.00
2017-08-08T09:36:26.195Z,20.10
2017-08-08T09:38:54.813Z,20.10
2017-08-08T09:41:24.813Z,20.20
2017-08-08T09:43:53.400Z,20.20
2017-08-08T09:46:21.819Z,20.10
2017-08-08T09:48:50.496Z,20.20
2017-08-08T09:51:19.828Z,20.20
2017-08-08T09:53:48.257Z,20.10
2017-08-08T09:56:17.444Z,20.20
2017-08-08T09:58:45.911Z,20.20
2017-08-08T10:01:14.589Z,20.20
2017-08-08T10:03:44.237Z,20.20
2017-08-08T10:06:13.697Z,20.30
2017-08-08T10:08:42.206Z,20.20
2017-08-08T10:11:10.752Z,20.20
2017-08-08T10:13:39.012Z,20.20
2017-08-08T10:16:07.429Z,20.20
2017-08-08T10:18:36.187Z,20.20
2017-08-08T10:21:05.039Z,20.20
2017-08-08T10:23:33.558Z,20.20
2017-08-08T10:26:01.982Z,20.20
2017-08-08T10:28:31.192Z,20.20
2017-08-08T10:31:00.380Z,20.20
2017-08-08T10:33:29.568Z,20.20
2017-08-08T10:35:58.794Z,20.20
2017-08-08T10:38:27.243Z,20.20
2017-08-08T10:40:56.425Z,20.20
2017-08-08T10:43:24.869Z,20.10
2017-08-08T10:45:53.287Z,20.10
2017-08-08T10:48:21.854Z,20.00
2017-08-08T10:50:50.344Z,19.90
2017-08-08T10:53:18.994Z,20.00
2017-08-08T10:55:47.525Z,20.00
2017-08-08T10:58:17.187Z,20.10
2017-08-08T11:00:45.967Z,20.10
2017-08-08T11:03:14.562Z,20.20
2017-08-08T11:05:43.093Z,20.20
2017-08-08T11:08:12.279Z,20.30
2017-08-08T11:10:40.813Z,20.30
2017-08-08T11:13:09.546Z,20.20
2017-08-08T11:15:37.957Z,20.20
2017-08-08T11:18:06.412Z,20.10
2017-08-08T11:20:35.645Z,20.10
2017-08-08T11:23:04.118Z,20.00
2017-08-08T11:25:32.578Z,20.00
2017-08-08T11:28:01.887Z,19.90
2017-08-08T11:30:30.324Z,19.90
2017-08-08T11:32:58.744Z,19.90
2017-08-08T11:35:27.191Z,19.90
2017-08-08T11:37:56.391Z,19.70
2017-08-08T11:40:25.573Z,19.60
2017-08-08T11:42:54.027Z,19.60
2017-08-08T11:45:22.455Z,19.40
2017-08-08T11:47:51.648Z,19.10
2017-08-08T11:50:20.876Z,19.00
2017-08-08T11:52:49.289Z,19.00
2017-08-08T11:55:17.715Z,19.10
2017-08-08T11:57:46.169Z,19.30
2017-08-08T12:00:14.403Z,19.30
2017-08-08T12:02:42.822Z,19.30
2017-08-08T12:05:11.296Z,19.30
2017-08-08T12:07:39.754Z,19.40
2017-08-08T12:10:08.186Z,19.50
2017-08-08T12:12:36.629Z,19.50
2017-08-08T12:15:05.049Z,19.50
2017-08-08T12:17:33.472Z,19.60
2017-08-08T12:20:01.918Z,19.60
2017-08-08T12:22:30.356Z,19.60
2017-08-08T12:24:59.563Z,19.40
2017-08-08T12:27:28.857Z,19.20
2017-08-08T12:29:57.289Z,19.20
2017-08-08T12:32:25.745Z,19.10
2017-08-08T12:34:54.216Z,19.10
2017-08-08T12:37:22.648Z,19.10
2017-08-08T12:39:51.068Z,19.20
2017-08-08T12:42:19.597Z,19.20
2017-08-08T12:44:48.023Z,19.30
2017-08-08T12:47:17.564Z,19.30
2017-08-08T12:49:46.029Z,19.30
2017-08-08T12:52:14.535Z,19.40
2017-08-08T12:54:42.960Z,19.40
2017-08-08T12:57:12.430Z,19.60
2017-08-08T12:59:40.940Z,19.50
2017-08-08T13:02:10.145Z,19.50
2017-08-08T13:04:39.542Z,19.60
2017-08-08T13:07:08.733Z,19.50
2017-08-08T13:09:37.920Z,19.50
2017-08-08T13:12:06.382Z,19.50
2017-08-08T13:14:35.170Z,19.50
2017-08-08T13:17:03.597Z,19.50
2017-08-08T13:19:32.344Z,19.50
2017-08-08T13:22:00.858Z,19.60
2017-08-08T13:24:30.044Z,19.60
2017-08-08T13:26:59.284Z,19.60
2017-08-08T13:29:27.823Z,19.60
2017-08-08T13:31:57.150Z,19.60
2017-08-08T13:34:25.581Z,19.60
2017-08-08T13:36:54.627Z,19.70
2017-08-08T13:39:23.077Z,19.60
2017-08-08T13:41:52.293Z,19.70
2017-08-08T13:44:20.745Z,19.60
2017-08-08T13:46:49.941Z,19.80
2017-08-08T13:49:19.259Z,19.90
2017-08-08T13:51:47.698Z,19.80
2017-08-08T13:54:16.113Z,20.00
2017-08-08T13:56:44.553Z,20.30
2017-08-08T13:59:12.992Z,20.50
2017-08-08T14:01:41.407Z,20.80
2017-08-08T14:04:09.881Z,21.00
2017-08-08T14:06:38.304Z,21.20
2017-08-08T14:09:07.426Z,21.30
2017-08-08T14:11:35.856Z,21.50
2017-08-08T14:14:04.257Z,21.70
2017-08-08T14:16:32.679Z,21.80
2017-08-08T14:19:01.109Z,21.90
2017-08-08T14:21:30.299Z,21.90
2017-08-08T14:23:59.481Z,21.80
2017-08-08T14:26:27.918Z,21.90
2017-08-08T14:28:57.025Z,21.80
2017-08-08T14:31:25.432Z,21.80
2017-08-08T14:33:53.894Z,21.70
2017-08-08T14:36:22.305Z,21.60
2017-08-08T14:38:51.493Z,21.70
2017-08-08T14:41:20.693Z,21.70
2017-08-08T14:43:49.881Z,21.70
2017-08-08T14:46:18.302Z,21.70
2017-08-08T14:48:46.741Z,21.70
2017-08-08T14:51:15.160Z,21.70
2017-08-08T14:53:43.565Z,21.80
2017-08-08T14:56:12.009Z,21.90
2017-08-08T14:58:40.424Z,22.00
2017-08-08T15:01:08.864Z,22.10
2017-08-08T15:03:37.316Z,22.20
2017-08-08T15:06:06.492Z,22.40
2017-08-08T15:08:34.897Z,22.40
2017-08-08T15:11:04.119Z,22.60
2017-08-08T15:13:34.002Z,22.70
2017-08-08T15:16:02.429Z,22.60
2017-08-08T15:18:30.860Z,22.70
2017-08-08T15:21:00.048Z,22.60
2017-08-08T15:23:29.230Z,22.50
2017-08-08T15:25:57.693Z,22.50
2017-08-08T15:28:26.112Z,22.40
2017-08-08T15:30:55.292Z,22.50
2017-08-08T15:33:23.734Z,22.50
2017-08-08T15:35:52.157Z,22.60
2017-08-08T15:38:21.338Z,22.70
2017-08-08T15:40:49.785Z,22.70
2017-08-08T15:43:18.217Z,22.70
2017-08-08T15:45:47.408Z,22.60
2017-08-08T15:48:16.612Z,22.50
2017-08-08T15:50:45.805Z,22.40
2017-08-08T15:53:14.984Z,22.50
2017-08-08T15:55:43.438Z,22.40
2017-08-08T15:58:11.848Z,22.40
2017-08-08T16:00:40.272Z,22.30
2017-08-08T16:03:08.727Z,22.30
2017-08-08T16:05:37.924Z,22.30
2017-08-08T16:08:07.017Z,22.30
2017-08-08T16:10:36.224Z,22.30
2017-08-08T16:13:04.652Z,22.30
2017-08-08T16:15:33.076Z,22.40
2017-08-08T16:18:02.296Z,22.40
2017-08-08T16:20:30.718Z,22.40
2017-08-08T16:22:59.147Z,22.40
2017-08-08T16:25:27.580Z,22.40
2017-08-08T16:27:56.005Z,22.30
2017-08-08T16:30:24.440Z,22.30
2017-08-08T16:32:53.576Z,22.20
2017-08-08T16:35:22.840Z,22.20
2017-08-08T16:37:51.257Z,22.10
2017-08-08T16:40:19.721Z,22.10
2017-08-08T16:42:48.163Z,22.00
2017-08-08T16:45:16.573Z,22.00
2017-08-08T16:47:45.062Z,22.00
2017-08-08T16:50:13.641Z,22.00
2017-08-08T16:52:42.228Z,21.90
2017-08-08T16:55:10.933Z,21.80
2017-08-08T16:57:39.498Z,21.70
2017-08-08T17:00:08.085Z,21.80
2017-08-08T17:02:36.588Z,21.70
2017-08-08T17:05:05.030Z,21.60
2017-08-08T17:07:34.201Z,21.60
2017-08-08T17:10:03.681Z,21.50
2017-08-08T17:12:32.597Z,21.50
2017-08-08T17:15:01.922Z,21.50
2017-08-08T17:17:30.604Z,21.50
2017-08-08T17:19:59.021Z,21.50
2017-08-08T17:22:27.526Z,21.50
2017-08-08T17:24:55.972Z,21.40
2017-08-08T17:27:24.397Z,21.30
2017-08-08T17:29:53.672Z,21.20
2017-08-08T17:32:22.164Z,21.20
2017-08-08T17:34:50.666Z,21.10
2017-08-08T17:37:19.071Z,21.10
2017-08-08T17:39:47.523Z,21.10
2017-08-08T17:42:16.694Z,21.00
2017-08-08T17:44:45.118Z,21.00
2017-08-08T17:47:13.572Z,21.00
2017-08-08T17:49:42.755Z,20.90
2017-08-08T17:52:11.190Z,20.90
2017-08-08T17:54:39.625Z,20.90
2017-08-08T17:57:08.843Z,20.80
2017-08-08T17:59:37.267Z,20.80
2017-08-08T18:02:05.832Z,20.70
2017-08-08T18:04:34.253Z,20.70
2017-08-08T18:07:02.692Z,20.80
2017-08-08T18:09:31.120Z,20.80
2017-08-08T18:12:00.316Z,20.60
2017-08-08T18:14:29.426Z,20.60
2017-08-08T18:16:58.639Z,20.50
2017-08-08T18:19:28.511Z,20.50
2017-08-08T18:21:56.934Z,20.40
2017-08-08T18:24:26.824Z,20.40
2017-08-08T18:26:56.009Z,20.40
2017-08-08T18:29:24.436Z,20.40
2017-08-08T18:31:52.899Z,20.50
2017-08-08T18:34:21.319Z,20.40
2017-08-08T18:36:49.835Z,20.40
2017-08-08T18:39:19.041Z,20.40
2017-08-08T18:41:47.477Z,20.30
2017-08-08T18:44:15.905Z,20.30
2017-08-08T18:46:44.366Z,20.30
2017-08-08T18:49:13.565Z,20.20
2017-08-08T18:51:42.784Z,20.10
2017-08-08T18:54:11.222Z,20.10
2017-08-08T18:56:39.649Z,20.10
2017-08-08T18:59:08.093Z,20.10
2017-08-08T19:01:37.396Z,19.90
2017-08-08T19:04:05.916Z,19.90
2017-08-08T19:06:34.352Z,19.90
2017-08-08T19:09:03.116Z,19.90
2017-08-08T19:11:31.580Z,19.80
2017-08-08T19:14:01.043Z,19.80
2017-08-08T19:16:30.275Z,19.80
2017-08-08T19:18:58.709Z,19.80
2017-08-08T19:21:27.888Z,19.80
2017-08-08T19:23:56.335Z,19.80
2017-08-08T19:26:24.798Z,19.80
2017-08-08T19:28:53.231Z,19.70
2017-08-08T19:31:21.685Z,19.70
2017-08-08T19:33:50.104Z,19.70
2017-08-08T19:36:19.287Z,19.60
2017-08-08T19:38:48.513Z,19.60
2017-08-08T19:41:16.938Z,19.60
2017-08-08T19:43:45.364Z,19.60
2017-08-08T19:46:13.808Z,19.60
2017-08-08T19:48:42.232Z,19.50
2017-08-08T19:51:10.665Z,19.50
2017-08-08T19:53:39.124Z,19.50
2017-08-08T19:56:07.546Z,19.50
2017-08-08T19:58:36.753Z,19.30
2017-08-08T20:01:05.224Z,19.30
2017-08-08T20:03:34.408Z,19.10
2017-08-08T20:06:04.498Z,19.10
2017-08-08T20:08:32.958Z,19.10
2017-08-08T20:11:01.377Z,19.10
2017-08-08T20:13:29.862Z,19.20
2017-08-08T20:15:58.805Z,19.20
2017-08-08T20:18:27.280Z,19.20
2017-08-08T20:20:57.464Z,19.20
2017-08-08T20:23:27.262Z,19.20
2017-08-08T20:25:55.815Z,19.20
2017-08-08T20:28:24.232Z,19.20
2017-08-08T20:30:53.685Z,19.20
2017-08-08T20:33:22.146Z,19.20
2017-08-08T20:35:50.657Z,19.20
2017-08-08T20:38:19.260Z,19.20
2017-08-08T20:40:47.674Z,19.10
2017-08-08T20:43:17.069Z,19.10
2017-08-08T20:45:46.264Z,19.00
2017-08-08T20:48:15.464Z,19.00
2017-08-08T20:50:43.921Z,19.00
2017-08-08T20:53:12.334Z,19.00
2017-08-08T20:55:40.761Z,19.00
2017-08-08T20:58:09.197Z,19.00
2017-08-08T21:00:37.617Z,19.00
2017-08-08T21:03:06.057Z,19.00
2017-08-08T21:05:34.502Z,18.90
2017-08-08T21:08:03.704Z,18.80
2017-08-08T21:10:32.894Z,18.80
2017-08-08T21:13:01.336Z,18.80
2017-08-08T21:15:29.786Z,18.80
2017-08-08T21:17:58.213Z,18.80
2017-08-08T21:20:26.673Z,18.90
2017-08-08T21:22:55.116Z,18.80
2017-08-08T21:25:23.574Z,18.70
2017-08-08T21:27:52.792Z,18.70
2017-08-08T21:30:21.232Z,18.70
2017-08-08T21:32:49.677Z,18.70
2017-08-08T21:35:18.129Z,18.60
2017-08-08T21:37:47.305Z,18.40
2017-08-08T21:40:16.591Z,18.40
2017-08-08T21:42:45.051Z,18.30
2017-08-08T21:45:13.491Z,18.40
2017-08-08T21:47:41.930Z,18.40
2017-08-08T21:50:10.404Z,18.30
2017-08-08T21:52:38.845Z,18.40
2017-08-08T21:55:07.278Z,18.40
2017-08-08T21:57:36.489Z,18.30
2017-08-08T22:00:05.697Z,18.30
2017-08-08T22:02:34.113Z,18.30
2017-08-08T22:05:02.574Z,18.30
2017-08-08T22:07:31.179Z,18.30
2017-08-08T22:09:59.651Z,18.30
2017-08-08T22:12:28.111Z,18.30
2017-08-08T22:14:56.530Z,18.30
2017-08-08T22:17:25.005Z,18.20
2017-08-08T22:19:53.465Z,18.20
2017-08-08T22:22:21.906Z,18.20
2017-08-08T22:24:50.330Z,18.20
2017-08-08T22:27:18.761Z,18.20
2017-08-08T22:29:47.201Z,18.10
2017-08-08T22:32:15.642Z,18.10
2017-08-08T22:34:44.081Z,18.20
2017-08-08T22:37:13.281Z,18.30
2017-08-08T22:39:42.482Z,18.30
2017-08-08T22:42:11.696Z,18.30
2017-08-08T22:44:40.154Z,18.20
2017-08-08T22:47:09.706Z,18.00
2017-08-08T22:49:38.197Z,18.00
2017-08-08T22:52:07.566Z,18.00
2017-08-08T22:54:35.989Z,18.00
2017-08-08T22:57:04.467Z,18.10
2017-08-08T22:59:33.748Z,18.00
2017-08-08T23:02:02.196Z,18.00
2017-08-08T23:04:30.642Z,18.10
2017-08-08T23:06:59.070Z,18.10
2017-08-08T23:09:27.532Z,18.10
2017-08-08T23:11:57.272Z,18.20
2017-08-08T23:14:26.057Z,18.10
2017-08-08T23:16:55.121Z,18.10
2017-08-08T23:19:23.576Z,18.10
2017-08-08T23:21:52.765Z,18.00
2017-08-08T23:24:21.206Z,18.00
2017-08-08T23:26:49.656Z,18.10
2017-08-08T23:29:18.088Z,18.10
2017-08-08T23:31:46.514Z,18.00
2017-08-08T23:34:14.960Z,17.90
2017-08-08T23:36:43.507Z,17.90
2017-08-08T23:39:12.867Z,17.80
2017-08-08T23:41:42.194Z,17.70
2017-08-08T23:44:10.602Z,17.70
2017-08-08T23:46:39.073Z,17.70
2017-08-08T23:49:07.605Z,17.70
2017-08-08T23:51:36.803Z,17.70
2017-08-08T23:54:05.229Z,17.60
2017-08-08T23:56:33.673Z,17.70
2017-08-08T23:59:02.093Z,17.70
